createdAt,value
2015-12-23T00:00:08.044Z,4.91
2015-12-23T00:00:20.403Z,4.92
2015-12-23T00:00:32.762Z,4.92
2015-12-23T00:00:45.125Z,4.97
2015-12-23T00:00:57.547Z,4.9
2015-12-23T00:01:09.922Z,4.92
2015-12-23T00:01:22.281Z,4.88
2015-12-23T00:01:34.625Z,4.87
2015-12-23T00:01:47.003Z,4.85
2015-12-23T00:01:59.378Z,4.87
2015-12-23T00:02:11.784Z,5.02
2015-12-23T00:02:24.143Z,4.94
2015-12-23T00:02:36.518Z,4.83
2015-12-23T00:02:48.912Z,4.94
2015-12-23T00:03:01.303Z,4.92
2015-12-23T00:03:13.709Z,4.85
2015-12-23T00:03:26.162Z,4.92
2015-12-23T00:03:38.537Z,4.83
2015-12-23T00:03:50.883Z,4.83
2015-12-23T00:04:03.242Z,4.94
2015-12-23T00:04:15.602Z,4.88
2015-12-23T00:04:27.961Z,4.85
2015-12-23T00:04:40.414Z,4.85
2015-12-23T00:04:52.792Z,4.91
2015-12-23T00:05:05.151Z,4.85
2015-12-23T00:05:17.542Z,4.85
2015-12-23T00:05:29.901Z,4.84
2015-12-23T00:05:42.245Z,4.84
2015-12-23T00:05:54.608Z,4.76
2015-12-23T00:06:06.983Z,4.78
2015-12-23T00:06:19.342Z,4.76
2015-12-23T00:06:31.717Z,4.76
2015-12-23T00:06:44.139Z,4.76
2015-12-23T00:06:56.517Z,4.78
2015-12-23T00:07:08.907Z,4.79
2015-12-23T00:07:20.579Z,4.72
2015-12-23T00:07:32.970Z,4.76
2015-12-23T00:07:45.361Z,4.76
2015-12-23T00:07:57.753Z,4.84
2015-12-23T00:08:10.097Z,4.83
2015-12-23T00:08:22.456Z,4.76
2015-12-23T00:08:34.816Z,4.74
2015-12-23T00:08:47.175Z,4.71
2015-12-23T00:08:59.537Z,4.83
2015-12-23T00:09:11.897Z,4.79
2015-12-23T00:09:24.256Z,4.72
2015-12-23T00:09:36.616Z,4.87
2015-12-23T00:09:48.959Z,4.85
2015-12-23T00:10:01.322Z,4.87
2015-12-23T00:10:13.681Z,4.94
2015-12-23T00:10:26.056Z,4.88
2015-12-23T00:10:38.447Z,4.85
2015-12-23T00:10:50.806Z,4.83
2015-12-23T00:11:03.199Z,4.85
2015-12-23T00:11:15.574Z,4.87
2015-12-23T00:11:27.949Z,4.9
2015-12-23T00:11:40.308Z,4.92
2015-12-23T00:11:52.652Z,4.84
2015-12-23T00:12:05.014Z,4.85
2015-12-23T00:12:17.374Z,4.92
2015-12-23T00:12:29.733Z,4.87
2015-12-23T00:12:42.092Z,4.94
2015-12-23T00:12:54.436Z,4.85
2015-12-23T00:13:06.814Z,4.84
2015-12-23T00:13:19.173Z,4.91
2015-12-23T00:13:31.548Z,4.94
2015-12-23T00:13:43.908Z,4.98
2015-12-23T00:13:56.283Z,5
2015-12-23T00:14:08.645Z,5
2015-12-23T00:14:21.005Z,5.06
2015-12-23T00:14:33.364Z,5.05
2015-12-23T00:14:45.770Z,5.03
2015-12-23T00:14:58.161Z,5
2015-12-23T00:15:10.538Z,5.05
2015-12-23T00:15:22.913Z,4.95
2015-12-23T00:15:35.303Z,5.03
2015-12-23T00:15:47.663Z,5.02
2015-12-23T00:16:00.022Z,5.02
2015-12-23T00:16:12.385Z,4.97
2015-12-23T00:16:24.744Z,4.92
2015-12-23T00:16:37.103Z,4.98
2015-12-23T00:16:49.463Z,5.03
2015-12-23T00:17:01.853Z,5.05
2015-12-23T00:17:14.044Z,4.98
2015-12-23T00:17:26.419Z,5.05
2015-12-23T00:17:38.747Z,5.02
2015-12-23T00:17:51.091Z,5
2015-12-23T00:18:03.466Z,4.92
2015-12-23T00:18:15.108Z,4.95
2015-12-23T00:18:27.468Z,4.97
2015-12-23T00:18:39.827Z,4.94
2015-12-23T00:18:52.202Z,5.03
2015-12-23T00:19:04.658Z,4.98
2015-12-23T00:19:17.049Z,4.94
2015-12-23T00:19:29.439Z,4.98
2015-12-23T00:19:41.830Z,5
2015-12-23T00:19:54.205Z,4.95
2015-12-23T00:20:06.614Z,4.94
2015-12-23T00:20:18.989Z,5
2015-12-23T00:20:31.396Z,5.06
2015-12-23T00:20:43.755Z,4.97
2015-12-23T00:20:56.114Z,4.98
2015-12-23T00:21:08.461Z,4.98
2015-12-23T00:21:20.836Z,5.03
2015-12-23T00:21:33.180Z,5.03
2015-12-23T00:21:45.539Z,5.02
2015-12-23T00:21:57.899Z,5.03
2015-12-23T00:22:10.245Z,5.06
2015-12-23T00:22:22.620Z,5.02
2015-12-23T00:22:34.980Z,4.95
2015-12-23T00:22:47.355Z,5.03
2015-12-23T00:22:59.730Z,5.02
2015-12-23T00:23:12.107Z,5.03
2015-12-23T00:23:24.497Z,5.02
2015-12-23T00:23:36.888Z,4.95
2015-12-23T00:23:49.263Z,5.03
2015-12-23T00:24:01.654Z,4.97
2015-12-23T00:24:14.078Z,4.98
2015-12-23T00:24:26.438Z,4.95
2015-12-23T00:24:38.828Z,4.95
2015-12-23T00:24:51.172Z,4.95
2015-12-23T00:25:03.532Z,4.95
2015-12-23T00:25:15.893Z,4.95
2015-12-23T00:25:28.252Z,4.9
2015-12-23T00:25:40.690Z,4.92
2015-12-23T00:25:53.127Z,4.85
2015-12-23T00:26:05.471Z,4.91
2015-12-23T00:26:17.897Z,4.84
2015-12-23T00:26:30.319Z,4.87
2015-12-23T00:26:42.694Z,4.83
2015-12-23T00:26:55.069Z,4.78
2015-12-23T00:27:07.428Z,4.78
2015-12-23T00:27:19.822Z,4.76
2015-12-23T00:27:32.197Z,4.78
2015-12-23T00:27:43.900Z,4.85
2015-12-23T00:27:56.291Z,4.76
2015-12-23T00:28:08.681Z,4.69
2015-12-23T00:28:21.074Z,4.72
2015-12-23T00:28:33.418Z,4.78
2015-12-23T00:28:45.777Z,4.83
2015-12-23T00:28:58.136Z,4.83
2015-12-23T00:29:10.480Z,4.75
2015-12-23T00:29:22.952Z,4.83
2015-12-23T00:29:35.327Z,4.78
2015-12-23T00:29:47.686Z,4.84
2015-12-23T00:30:00.046Z,4.84
2015-12-23T00:30:12.421Z,4.83
2015-12-23T00:30:24.782Z,4.76
2015-12-23T00:30:37.157Z,4.84
2015-12-23T00:30:49.423Z,4.74
2015-12-23T00:31:01.782Z,4.78
2015-12-23T00:31:14.157Z,4.72
2015-12-23T00:31:26.535Z,4.83
2015-12-23T00:31:38.910Z,4.83
2015-12-23T00:31:51.285Z,4.84
2015-12-23T00:32:03.722Z,4.84
2015-12-23T00:32:16.222Z,4.83
2015-12-23T00:32:28.647Z,4.83
2015-12-23T00:32:41.022Z,4.83
2015-12-23T00:32:53.382Z,4.74
2015-12-23T00:33:05.741Z,4.78
2015-12-23T00:33:18.085Z,4.75
2015-12-23T00:33:30.477Z,4.69
2015-12-23T00:33:42.165Z,4.74
2015-12-23T00:33:54.524Z,4.72
2015-12-23T00:34:06.899Z,4.65
2015-12-23T00:34:19.259Z,4.68
2015-12-23T00:34:31.621Z,4.65
2015-12-23T00:34:43.965Z,4.65
2015-12-23T00:34:56.324Z,4.68
2015-12-23T00:35:08.699Z,4.72
2015-12-23T00:35:21.218Z,4.72
2015-12-23T00:35:33.593Z,4.78
2015-12-23T00:35:46.046Z,4.75
2015-12-23T00:35:57.718Z,4.72
2015-12-23T00:36:10.093Z,4.72
2015-12-23T00:36:22.502Z,4.72
2015-12-23T00:36:34.861Z,4.71
2015-12-23T00:36:47.283Z,4.69
2015-12-23T00:36:59.627Z,4.65
2015-12-23T00:37:11.893Z,4.65
2015-12-23T00:37:24.302Z,4.71
2015-12-23T00:37:36.661Z,4.65
2015-12-23T00:37:49.021Z,4.61
2015-12-23T00:38:01.380Z,4.74
2015-12-23T00:38:13.724Z,4.76
2015-12-23T00:38:26.102Z,4.74
2015-12-23T00:38:37.836Z,4.65
2015-12-23T00:38:50.211Z,4.74
2015-12-23T00:39:02.586Z,4.72
2015-12-23T00:39:14.961Z,4.72
2015-12-23T00:39:26.651Z,4.72
2015-12-23T00:39:39.041Z,4.75
2015-12-23T00:39:51.416Z,4.75
2015-12-23T00:40:03.807Z,4.64
2015-12-23T00:40:16.198Z,4.74
2015-12-23T00:40:28.590Z,4.72
2015-12-23T00:40:41.028Z,4.75
2015-12-23T00:40:53.418Z,4.68
2015-12-23T00:41:05.778Z,4.75
2015-12-23T00:41:18.121Z,4.83
2015-12-23T00:41:30.485Z,4.75
2015-12-23T00:41:42.844Z,4.72
2015-12-23T00:41:55.204Z,4.78
2015-12-23T00:42:07.579Z,4.75
2015-12-23T00:42:19.938Z,4.61
2015-12-23T00:42:32.299Z,4.66
2015-12-23T00:42:44.643Z,4.69
2015-12-23T00:42:56.987Z,4.71
2015-12-23T00:43:09.409Z,4.69
2015-12-23T00:43:21.784Z,4.74
2015-12-23T00:43:34.162Z,4.75
2015-12-23T00:43:46.615Z,4.79
2015-12-23T00:43:58.349Z,4.84
2015-12-23T00:44:10.740Z,4.79
2015-12-23T00:44:23.130Z,4.9
2015-12-23T00:44:35.524Z,4.88
2015-12-23T00:44:47.993Z,4.78
2015-12-23T00:45:00.383Z,4.84
2015-12-23T00:45:12.743Z,4.87
2015-12-23T00:45:25.102Z,4.84
2015-12-23T00:45:37.464Z,4.72
2015-12-23T00:45:49.823Z,4.78
2015-12-23T00:46:02.198Z,4.83
2015-12-23T00:46:14.589Z,4.84
2015-12-23T00:46:26.948Z,4.79
2015-12-23T00:46:39.310Z,4.84
2015-12-23T00:46:51.670Z,4.83
2015-12-23T00:47:04.045Z,4.78
2015-12-23T00:47:16.404Z,4.87
2015-12-23T00:47:28.763Z,4.83
2015-12-23T00:47:41.126Z,4.74
2015-12-23T00:47:53.501Z,4.83
2015-12-23T00:48:05.876Z,4.74
2015-12-23T00:48:18.282Z,4.72
2015-12-23T00:48:30.673Z,4.74
2015-12-23T00:48:43.066Z,4.75
2015-12-23T00:48:55.426Z,4.69
2015-12-23T00:49:07.785Z,4.65
2015-12-23T00:49:20.129Z,4.64
2015-12-23T00:49:32.504Z,4.76
2015-12-23T00:49:44.709Z,4.65
2015-12-23T00:49:57.068Z,4.74
2015-12-23T00:50:09.428Z,4.66
2015-12-23T00:50:21.803Z,4.72
2015-12-23T00:50:34.146Z,4.69
2015-12-23T00:50:46.509Z,4.75
2015-12-23T00:50:58.978Z,4.69
2015-12-23T00:51:11.415Z,4.71
2015-12-23T00:51:23.774Z,4.72
2015-12-23T00:51:36.134Z,4.72
2015-12-23T00:51:48.512Z,4.74
2015-12-23T00:52:00.902Z,4.74
2015-12-23T00:52:13.293Z,4.72
2015-12-23T00:52:25.777Z,4.72
2015-12-23T00:52:38.152Z,4.68
2015-12-23T00:52:50.577Z,4.72
2015-12-23T00:53:02.984Z,4.85
2015-12-23T00:53:15.327Z,4.68
2015-12-23T00:53:27.671Z,4.71
2015-12-23T00:53:40.015Z,4.72
2015-12-23T00:53:52.376Z,4.76
2015-12-23T00:54:04.751Z,4.84
2015-12-23T00:54:17.126Z,4.76
2015-12-23T00:54:29.501Z,4.76
2015-12-23T00:54:41.157Z,4.76
2015-12-23T00:54:53.598Z,4.79
2015-12-23T00:55:05.989Z,4.79
2015-12-23T00:55:18.462Z,4.75
2015-12-23T00:55:30.697Z,4.75
2015-12-23T00:55:43.275Z,4.75
2015-12-23T00:55:56.788Z,4.79
2015-12-23T00:56:11.992Z,4.84
2015-12-23T00:56:24.648Z,4.84
2015-12-23T00:56:37.320Z,4.76
2015-12-23T00:56:50.291Z,4.76
2015-12-23T00:57:02.854Z,4.79
2015-12-23T00:57:21.588Z,4.85
2015-12-23T00:57:34.307Z,4.83
2015-12-23T00:57:47.748Z,4.76
2015-12-23T00:58:00.357Z,4.83
2015-12-23T00:58:13.373Z,4.88
2015-12-23T00:58:25.857Z,4.75
2015-12-23T00:58:38.341Z,4.76
2015-12-23T00:58:51.125Z,4.84
2015-12-23T00:59:04.015Z,4.78
2015-12-23T00:59:16.406Z,4.84
2015-12-23T00:59:28.781Z,4.83
2015-12-23T00:59:41.203Z,4.75
2015-12-23T00:59:54.955Z,4.76
2015-12-23T01:00:07.595Z,4.84
2015-12-23T01:00:20.283Z,4.79
2015-12-23T01:00:33.033Z,4.83
2015-12-23T01:00:45.458Z,4.85
2015-12-23T01:00:57.895Z,4.83
2015-12-23T01:01:10.333Z,4.66
2015-12-23T01:01:23.114Z,4.76
2015-12-23T01:01:35.098Z,4.75
2015-12-23T01:01:47.523Z,4.78
2015-12-23T01:01:59.883Z,4.85
2015-12-23T01:02:12.226Z,4.83
2015-12-23T01:02:24.586Z,4.71
2015-12-23T01:02:36.945Z,4.69
2015-12-23T01:02:49.306Z,4.78
2015-12-23T01:03:01.666Z,4.65
2015-12-23T01:03:14.072Z,4.71
2015-12-23T01:03:26.431Z,4.78
2015-12-23T01:03:38.791Z,4.74
2015-12-23T01:03:51.153Z,4.71
2015-12-23T01:04:02.872Z,4.78
2015-12-23T01:04:15.278Z,4.83
2015-12-23T01:04:27.700Z,4.83
2015-12-23T01:04:40.075Z,4.72
2015-12-23T01:04:52.469Z,4.84
2015-12-23T01:05:04.859Z,4.68
2015-12-23T01:05:17.250Z,4.74
2015-12-23T01:05:29.750Z,4.83
2015-12-23T01:05:42.172Z,4.79
2015-12-23T01:05:54.519Z,4.78
2015-12-23T01:06:06.894Z,4.83
2015-12-23T01:06:19.253Z,4.76
2015-12-23T01:06:31.597Z,4.76
2015-12-23T01:06:43.956Z,4.75
2015-12-23T01:06:56.318Z,4.78
2015-12-23T01:07:08.678Z,4.78
2015-12-23T01:07:21.053Z,4.71
2015-12-23T01:07:33.397Z,4.85
2015-12-23T01:07:45.756Z,4.75
2015-12-23T01:07:58.117Z,4.69
2015-12-23T01:08:10.492Z,4.75
2015-12-23T01:08:22.852Z,4.69
2015-12-23T01:08:35.305Z,4.76
2015-12-23T01:08:47.680Z,4.66
2015-12-23T01:09:00.059Z,4.78
2015-12-23T01:09:12.481Z,4.76
2015-12-23T01:09:24.887Z,4.65
2015-12-23T01:09:37.371Z,4.74
2015-12-23T01:09:49.746Z,4.74
2015-12-23T01:10:02.140Z,4.68
2015-12-23T01:10:14.484Z,4.79
2015-12-23T01:10:26.859Z,4.68
2015-12-23T01:10:39.234Z,4.66
2015-12-23T01:10:51.593Z,4.64
2015-12-23T01:11:03.954Z,4.76
2015-12-23T01:11:16.329Z,4.78
2015-12-23T01:11:28.689Z,4.69
2015-12-23T01:11:41.064Z,4.72
2015-12-23T01:11:53.408Z,4.74
2015-12-23T01:12:05.770Z,4.69
2015-12-23T01:12:18.114Z,4.58
2015-12-23T01:12:30.489Z,4.64
2015-12-23T01:12:42.864Z,4.6
2015-12-23T01:12:55.223Z,4.58
2015-12-23T01:13:07.617Z,4.64
2015-12-23T01:13:19.992Z,4.58
2015-12-23T01:13:32.382Z,4.58
2015-12-23T01:13:44.789Z,4.64
2015-12-23T01:13:57.179Z,4.56
2015-12-23T01:14:09.573Z,4.61
2015-12-23T01:14:22.026Z,4.61
2015-12-23T01:14:34.417Z,4.61
2015-12-23T01:14:46.057Z,4.61
2015-12-23T01:14:58.463Z,4.57
2015-12-23T01:15:10.872Z,4.56
2015-12-23T01:15:23.262Z,4.58
2015-12-23T01:15:35.622Z,4.57
2015-12-23T01:15:47.247Z,4.58
2015-12-23T01:15:59.450Z,4.64
2015-12-23T01:16:11.812Z,4.66
2015-12-23T01:16:24.187Z,4.65
2015-12-23T01:16:36.578Z,4.66
2015-12-23T01:16:48.937Z,4.71
2015-12-23T01:17:01.312Z,4.64
2015-12-23T01:17:13.689Z,4.56
2015-12-23T01:17:26.064Z,4.56
2015-12-23T01:17:38.455Z,4.58
2015-12-23T01:17:50.830Z,4.57
2015-12-23T01:18:03.220Z,4.53
2015-12-23T01:18:15.630Z,4.5
2015-12-23T01:18:27.864Z,4.58
2015-12-23T01:18:40.239Z,4.57
2015-12-23T01:18:52.645Z,4.48
2015-12-23T01:19:04.989Z,4.56
2015-12-23T01:19:17.430Z,4.64
2015-12-23T01:19:29.789Z,4.64
2015-12-23T01:19:42.148Z,4.56
2015-12-23T01:19:54.508Z,4.58
2015-12-23T01:20:06.867Z,4.56
2015-12-23T01:20:19.228Z,4.58
2015-12-23T01:20:31.588Z,4.57
2015-12-23T01:20:43.947Z,4.65
2015-12-23T01:20:56.322Z,4.61
2015-12-23T01:21:08.541Z,4.65
2015-12-23T01:21:20.919Z,4.53
2015-12-23T01:21:33.278Z,4.56
2015-12-23T01:21:45.669Z,4.54
2015-12-23T01:22:31.126Z,4.54
2015-12-23T01:22:43.407Z,4.58
2015-12-23T01:22:55.814Z,4.61
2015-12-23T01:23:08.157Z,4.53
2015-12-23T01:23:20.519Z,4.47
2015-12-23T01:23:32.878Z,4.58
2015-12-23T01:23:45.237Z,4.51
2015-12-23T01:23:57.597Z,4.61
2015-12-23T01:24:09.972Z,4.57
2015-12-23T01:24:22.350Z,4.54
2015-12-23T01:24:34.725Z,4.56
2015-12-23T01:24:47.084Z,4.56
2015-12-23T01:24:59.459Z,4.48
2015-12-23T01:25:11.834Z,4.39
2015-12-23T01:25:24.289Z,4.5
2015-12-23T01:25:36.524Z,4.53
2015-12-23T01:25:48.914Z,4.5
2015-12-23T01:26:01.305Z,4.53
2015-12-23T01:26:13.664Z,4.54
2015-12-23T01:26:26.059Z,4.51
2015-12-23T01:26:38.481Z,4.46
2015-12-23T01:26:50.840Z,4.48
2015-12-23T01:27:03.200Z,4.48
2015-12-23T01:27:15.559Z,4.47
2015-12-23T01:27:27.905Z,4.5
2015-12-23T01:27:40.264Z,4.54
2015-12-23T01:27:52.623Z,4.51
2015-12-23T01:28:05.030Z,4.56
2015-12-23T01:28:17.405Z,4.47
2015-12-23T01:28:29.767Z,4.53
2015-12-23T01:28:42.142Z,4.48
2015-12-23T01:28:54.517Z,4.51
2015-12-23T01:29:06.892Z,4.51
2015-12-23T01:29:19.314Z,4.42
2015-12-23T01:29:31.816Z,4.46
2015-12-23T01:29:44.222Z,4.46
2015-12-23T01:29:56.582Z,4.46
2015-12-23T01:30:08.925Z,4.54
2015-12-23T01:30:21.269Z,4.44
2015-12-23T01:30:33.616Z,4.46
2015-12-23T01:30:45.960Z,4.46
2015-12-23T01:30:58.303Z,4.39
2015-12-23T01:31:10.647Z,4.54
2015-12-23T01:31:23.006Z,4.46
2015-12-23T01:31:35.384Z,4.4
2015-12-23T01:31:47.041Z,4.47
2015-12-23T01:31:59.416Z,4.44
2015-12-23T01:32:11.822Z,4.42
2015-12-23T01:32:24.197Z,4.44
2015-12-23T01:32:36.574Z,4.48
2015-12-23T01:32:48.793Z,4.47
2015-12-23T01:33:01.152Z,4.5
2015-12-23T01:33:13.496Z,4.51
2015-12-23T01:33:25.840Z,4.5
2015-12-23T01:33:38.202Z,4.6
2015-12-23T01:33:50.546Z,4.6
2015-12-23T01:34:02.905Z,4.65
2015-12-23T01:34:15.280Z,4.64
2015-12-23T01:34:27.639Z,4.68
2015-12-23T01:34:39.986Z,4.75
2015-12-23T01:34:52.346Z,4.64
2015-12-23T01:35:04.705Z,4.65
2015-12-23T01:35:17.080Z,4.68
2015-12-23T01:35:29.455Z,4.72
2015-12-23T01:35:41.833Z,4.71
2015-12-23T01:35:54.208Z,4.71
2015-12-23T01:36:06.599Z,4.65
2015-12-23T01:36:18.989Z,4.69
2015-12-23T01:36:31.364Z,4.66
2015-12-23T01:36:43.727Z,4.58
2015-12-23T01:36:56.070Z,4.72
2015-12-23T01:37:08.430Z,4.6
2015-12-23T01:37:20.789Z,4.72
2015-12-23T01:37:33.211Z,4.66
2015-12-23T01:37:45.650Z,4.58
2015-12-23T01:37:57.994Z,4.72
2015-12-23T01:38:10.354Z,4.61
2015-12-23T01:38:22.713Z,4.54
2015-12-23T01:38:35.072Z,4.68
2015-12-23T01:38:47.436Z,4.6
2015-12-23T01:38:59.811Z,4.6
2015-12-23T01:39:12.186Z,4.64
2015-12-23T01:39:24.576Z,4.64
2015-12-23T01:39:36.953Z,4.57
2015-12-23T01:39:49.344Z,4.6
2015-12-23T01:40:01.735Z,4.6
2015-12-23T01:40:14.141Z,4.64
2015-12-23T01:40:26.516Z,4.68
2015-12-23T01:40:38.908Z,4.64
2015-12-23T01:40:51.174Z,4.66
2015-12-23T01:41:03.518Z,4.57
2015-12-23T01:41:15.908Z,4.61
2015-12-23T01:41:28.330Z,4.58
2015-12-23T01:41:39.991Z,4.57
2015-12-23T01:41:51.631Z,4.58
2015-12-23T01:42:03.991Z,4.58
2015-12-23T01:42:16.350Z,4.58
2015-12-23T01:42:28.725Z,4.64
2015-12-23T01:42:41.086Z,4.6
2015-12-23T01:42:53.430Z,4.58
2015-12-23T01:43:05.805Z,4.57
2015-12-23T01:43:18.180Z,4.46
2015-12-23T01:43:30.633Z,4.48
2015-12-23T01:43:43.058Z,4.54
2015-12-23T01:43:55.433Z,4.57
2015-12-23T01:44:07.824Z,4.48
2015-12-23T01:44:20.199Z,4.57
2015-12-23T01:44:32.574Z,4.6
2015-12-23T01:44:44.999Z,4.58
2015-12-23T01:44:57.405Z,4.57
2015-12-23T01:45:09.811Z,4.54
2015-12-23T01:45:22.170Z,4.6
2015-12-23T01:45:34.530Z,4.6
2015-12-23T01:45:46.876Z,4.58
2015-12-23T01:45:59.235Z,4.48
2015-12-23T01:46:11.579Z,4.6
2015-12-23T01:46:23.938Z,4.65
2015-12-23T01:46:36.282Z,4.54
2015-12-23T01:46:48.660Z,4.57
2015-12-23T01:47:01.019Z,4.6
2015-12-23T01:47:13.363Z,4.57
2015-12-23T01:47:25.722Z,4.65
2015-12-23T01:47:38.113Z,4.58
2015-12-23T01:47:50.507Z,4.6
2015-12-23T01:48:02.960Z,4.58
2015-12-23T01:48:15.335Z,4.6
2015-12-23T01:48:27.725Z,4.65
2015-12-23T01:48:40.116Z,4.66
2015-12-23T01:48:52.524Z,4.57
2015-12-23T01:49:04.915Z,4.66
2015-12-23T01:49:17.305Z,4.72
2015-12-23T01:49:29.649Z,4.69
2015-12-23T01:49:42.009Z,4.76
2015-12-23T01:49:54.371Z,4.83
2015-12-23T01:50:06.730Z,4.74
2015-12-23T01:50:19.230Z,4.72
2015-12-23T01:50:31.590Z,4.68
2015-12-23T01:50:43.949Z,4.71
2015-12-23T01:50:56.311Z,4.71
2015-12-23T01:51:08.671Z,4.66
2015-12-23T01:51:21.030Z,4.72
2015-12-23T01:51:33.390Z,4.65
2015-12-23T01:51:45.749Z,4.71
2015-12-23T01:51:58.111Z,4.74
2015-12-23T01:52:10.486Z,4.66
2015-12-23T01:52:22.877Z,4.68
2015-12-23T01:52:35.268Z,4.76
2015-12-23T01:52:47.658Z,4.68
2015-12-23T01:53:00.051Z,4.75
2015-12-23T01:53:12.441Z,4.74
2015-12-23T01:53:24.832Z,4.76
2015-12-23T01:53:37.207Z,4.66
2015-12-23T01:53:49.566Z,4.75
2015-12-23T01:54:01.929Z,4.68
2015-12-23T01:54:14.288Z,4.66
2015-12-23T01:54:26.648Z,4.66
2015-12-23T01:54:39.007Z,4.71
2015-12-23T01:54:51.382Z,4.69
2015-12-23T01:55:03.760Z,4.72
2015-12-23T01:55:16.119Z,4.66
2015-12-23T01:55:28.479Z,4.57
2015-12-23T01:55:40.838Z,4.69
2015-12-23T01:55:53.213Z,4.66
2015-12-23T01:56:05.590Z,4.71
2015-12-23T01:56:17.793Z,4.57
2015-12-23T01:56:30.184Z,4.64
2015-12-23T01:56:42.559Z,4.6
2015-12-23T01:56:54.965Z,4.66
2015-12-23T01:57:07.359Z,4.64
2015-12-23T01:57:19.609Z,4.64
2015-12-23T01:57:31.999Z,4.65
2015-12-23T01:57:44.374Z,4.64
2015-12-23T01:57:56.749Z,4.6
2015-12-23T01:58:08.955Z,4.6
2015-12-23T01:58:21.315Z,4.6
2015-12-23T01:58:33.674Z,4.56
2015-12-23T01:58:46.034Z,4.61
2015-12-23T01:58:58.393Z,4.58
2015-12-23T01:59:10.771Z,4.66
2015-12-23T01:59:22.412Z,4.57
2015-12-23T01:59:34.771Z,4.57
2015-12-23T01:59:47.130Z,4.64
2015-12-23T01:59:59.507Z,4.65
2015-12-23T02:00:11.882Z,4.61
2015-12-23T02:00:24.257Z,4.58
2015-12-23T02:00:36.648Z,4.65
2015-12-23T02:00:49.039Z,4.61
2015-12-23T02:01:01.479Z,4.56
2015-12-23T02:01:13.854Z,4.57
2015-12-23T02:01:26.213Z,4.53
2015-12-23T02:01:38.573Z,4.64
2015-12-23T02:01:50.932Z,4.61
2015-12-23T02:02:03.295Z,4.58
2015-12-23T02:02:15.638Z,4.58
2015-12-23T02:02:27.998Z,4.66
2015-12-23T02:02:40.185Z,4.65
2015-12-23T02:02:52.545Z,4.54
2015-12-23T02:03:04.907Z,4.58
2015-12-23T02:03:17.266Z,4.57
2015-12-23T02:03:29.610Z,4.6
2015-12-23T02:03:41.969Z,4.54
2015-12-23T02:03:54.344Z,4.48
2015-12-23T02:04:06.721Z,4.51
2015-12-23T02:04:19.128Z,4.58
2015-12-23T02:04:31.565Z,4.57
2015-12-23T02:04:43.956Z,4.53
2015-12-23T02:04:56.346Z,4.58
2015-12-23T02:05:08.741Z,4.53
2015-12-23T02:05:21.179Z,4.54
2015-12-23T02:05:33.569Z,4.58
2015-12-23T02:05:45.913Z,4.6
2015-12-23T02:05:57.569Z,4.58
2015-12-23T02:06:09.931Z,4.53
2015-12-23T02:06:22.290Z,4.61
2015-12-23T02:06:34.649Z,4.64
2015-12-23T02:06:47.009Z,4.61
2015-12-23T02:06:59.368Z,4.6
2015-12-23T02:07:11.730Z,4.57
2015-12-23T02:07:24.090Z,4.58
2015-12-23T02:07:36.449Z,4.64
2015-12-23T02:07:48.793Z,4.64
2015-12-23T02:08:01.184Z,4.64
2015-12-23T02:08:13.546Z,4.64
2015-12-23T02:08:25.249Z,4.58
2015-12-23T02:08:37.640Z,4.64
2015-12-23T02:08:50.030Z,4.68
2015-12-23T02:09:02.421Z,4.66
2015-12-23T02:09:14.829Z,4.6
2015-12-23T02:09:27.235Z,4.66
2015-12-23T02:09:39.595Z,4.64
2015-12-23T02:09:52.001Z,4.6
2015-12-23T02:10:04.345Z,4.6
2015-12-23T02:10:16.692Z,4.58
2015-12-23T02:10:29.067Z,4.58
2015-12-23T02:10:41.473Z,4.6
2015-12-23T02:10:53.832Z,4.54
2015-12-23T02:11:06.192Z,4.58
2015-12-23T02:11:18.554Z,4.53
2015-12-23T02:11:30.038Z,4.57
2015-12-23T02:11:42.398Z,4.57
2015-12-23T02:11:54.741Z,4.54
2015-12-23T02:12:06.960Z,4.61
2015-12-23T02:12:19.337Z,4.53
2015-12-23T02:12:31.712Z,4.56
2015-12-23T02:12:44.087Z,4.54
2015-12-23T02:12:56.493Z,4.56
2015-12-23T02:13:08.868Z,4.51
2015-12-23T02:13:21.263Z,4.5
2015-12-23T02:13:33.654Z,4.56
2015-12-23T02:13:46.060Z,4.51
2015-12-23T02:13:58.560Z,4.51
2015-12-23T02:14:10.951Z,4.54
2015-12-23T02:14:23.313Z,4.51
2015-12-23T02:14:35.657Z,4.53
2015-12-23T02:14:48.016Z,4.53
2015-12-23T02:15:00.375Z,4.47
2015-12-23T02:15:12.719Z,4.51
2015-12-23T02:15:25.081Z,4.51
2015-12-23T02:15:37.440Z,4.47
2015-12-23T02:15:49.799Z,4.44
2015-12-23T02:16:02.174Z,4.48
2015-12-23T02:16:14.518Z,4.46
2015-12-23T02:16:26.880Z,4.46
2015-12-23T02:16:39.240Z,4.47
2015-12-23T02:16:51.615Z,4.48
2015-12-23T02:17:03.974Z,4.48
2015-12-23T02:17:16.365Z,4.51
2015-12-23T02:17:28.757Z,4.53
2015-12-23T02:17:41.132Z,4.47
2015-12-23T02:17:53.523Z,4.44
2015-12-23T02:18:05.914Z,4.4
2015-12-23T02:18:18.304Z,4.39
2015-12-23T02:18:30.714Z,4.36
2015-12-23T02:18:43.073Z,4.39
2015-12-23T02:18:55.526Z,4.36
2015-12-23T02:19:07.917Z,4.36
2015-12-23T02:19:19.573Z,4.29
2015-12-23T02:19:31.935Z,4.38
2015-12-23T02:19:44.279Z,4.42
2015-12-23T02:19:56.638Z,4.46
2015-12-23T02:20:09.045Z,4.38
2015-12-23T02:20:21.451Z,4.4
2015-12-23T02:20:33.798Z,4.46
2015-12-23T02:20:46.173Z,4.39
2015-12-23T02:20:58.532Z,4.33
2015-12-23T02:21:11.016Z,4.3
2015-12-23T02:21:23.376Z,4.38
2015-12-23T02:21:35.753Z,4.24
2015-12-23T02:21:48.128Z,4.46
2015-12-23T02:22:00.534Z,4.4
2015-12-23T02:22:12.925Z,4.36
2015-12-23T02:22:25.393Z,4.39
2015-12-23T02:22:37.881Z,4.28
2015-12-23T02:22:50.240Z,4.38
2015-12-23T02:23:02.646Z,4.39
2015-12-23T02:23:15.053Z,4.24
2015-12-23T02:23:27.412Z,4.39
2015-12-23T02:23:39.790Z,4.42
2015-12-23T02:23:52.134Z,4.39
2015-12-23T02:24:04.493Z,4.26
2015-12-23T02:24:16.899Z,4.36
2015-12-23T02:24:29.321Z,4.35
2015-12-23T02:24:41.714Z,4.32
2015-12-23T02:24:54.073Z,4.36
2015-12-23T02:25:06.433Z,4.38
2015-12-23T02:25:18.823Z,4.29
2015-12-23T02:25:31.198Z,4.39
2015-12-23T02:25:43.577Z,4.22
2015-12-23T02:25:55.968Z,4.24
2015-12-23T02:26:08.437Z,4.3
2015-12-23T02:26:20.937Z,4.22
2015-12-23T02:26:33.296Z,4.21
2015-12-23T02:26:45.642Z,4.3
2015-12-23T02:26:58.064Z,4.33
2015-12-23T02:27:10.423Z,4.2
2015-12-23T02:27:22.845Z,4.22
2015-12-23T02:27:35.267Z,4.32
2015-12-23T02:27:47.614Z,4.26
2015-12-23T02:27:59.973Z,4.17
2015-12-23T02:28:12.332Z,4.28
2015-12-23T02:28:24.785Z,4.2
2015-12-23T02:28:37.223Z,4.14
2015-12-23T02:28:49.584Z,4.24
2015-12-23T02:29:01.959Z,4.29
2015-12-23T02:29:14.319Z,4.24
2015-12-23T02:29:26.694Z,4.22
2015-12-23T02:29:39.116Z,4.2
2015-12-23T02:29:51.603Z,4.2
2015-12-23T02:30:03.994Z,4.18
2015-12-23T02:30:16.384Z,4.2
2015-12-23T02:30:28.775Z,4.21
2015-12-23T02:30:41.185Z,4.24
2015-12-23T02:30:53.529Z,4.3
2015-12-23T02:31:05.888Z,4.28
2015-12-23T02:31:18.294Z,4.2
2015-12-23T02:31:30.685Z,4.2
2015-12-23T02:31:43.031Z,4.29
2015-12-23T02:31:55.390Z,4.3
2015-12-23T02:32:07.734Z,4.22
2015-12-23T02:32:20.109Z,4.29
2015-12-23T02:32:32.500Z,4.22
2015-12-23T02:32:44.878Z,4.15
2015-12-23T02:32:57.253Z,4.28
2015-12-23T02:33:09.612Z,4.26
2015-12-23T02:33:22.003Z,4.29
2015-12-23T02:33:34.362Z,4.2
2015-12-23T02:33:46.740Z,4.28
2015-12-23T02:33:59.131Z,4.21
2015-12-23T02:34:11.521Z,4.29
2015-12-23T02:34:23.927Z,4.11
2015-12-23T02:34:36.396Z,4.24
2015-12-23T02:34:48.820Z,4.29
2015-12-23T02:35:01.164Z,4.26
2015-12-23T02:35:13.508Z,4.2
2015-12-23T02:35:25.851Z,4.24
2015-12-23T02:35:38.179Z,4.17
2015-12-23T02:35:50.542Z,4.18
2015-12-23T02:36:03.042Z,4.29
2015-12-23T02:36:15.417Z,4.21
2015-12-23T02:36:27.776Z,4.26
2015-12-23T02:36:40.136Z,4.28
2015-12-23T02:36:52.498Z,4.39
2015-12-23T02:37:04.982Z,4.33
2015-12-23T02:37:17.389Z,4.32
2015-12-23T02:37:29.764Z,4.36
2015-12-23T02:37:42.123Z,4.32
2015-12-23T02:37:54.501Z,4.36
2015-12-23T02:38:06.892Z,4.33
2015-12-23T02:38:19.345Z,4.35
2015-12-23T02:38:31.782Z,4.35
2015-12-23T02:38:44.032Z,4.29
2015-12-23T02:38:56.440Z,4.35
2015-12-23T02:39:08.784Z,4.38
2015-12-23T02:39:21.253Z,4.24
2015-12-23T02:39:33.612Z,4.36
2015-12-23T02:39:45.972Z,4.36
2015-12-23T02:39:58.334Z,4.44
2015-12-23T02:40:10.678Z,4.33
2015-12-23T02:40:23.037Z,4.33
2015-12-23T02:40:35.303Z,4.33
2015-12-23T02:40:47.709Z,4.3
2015-12-23T02:41:00.070Z,4.39
2015-12-23T02:41:12.445Z,4.39
2015-12-23T02:41:24.820Z,4.33
2015-12-23T02:41:37.258Z,4.39
2015-12-23T02:41:49.695Z,4.39
2015-12-23T02:42:02.073Z,4.29
2015-12-23T02:42:14.464Z,4.2
2015-12-23T02:42:26.855Z,4.21
2015-12-23T02:42:39.230Z,4.32
2015-12-23T02:42:51.636Z,4.22
2015-12-23T02:43:04.093Z,4.22
2015-12-23T02:43:16.452Z,4.32
2015-12-23T02:43:28.796Z,4.24
2015-12-23T02:43:41.140Z,4.21
2015-12-23T02:43:53.515Z,4.29
2015-12-23T02:44:05.861Z,4.14
2015-12-23T02:44:18.236Z,4.2
2015-12-23T02:44:30.579Z,4.29
2015-12-23T02:44:42.939Z,4.21
2015-12-23T02:44:55.376Z,4.14
2015-12-23T02:45:07.800Z,4.21
2015-12-23T02:45:20.175Z,4.29
2015-12-23T02:45:32.550Z,4.26
2015-12-23T02:45:44.925Z,4.2
2015-12-23T02:45:57.300Z,4.24